sensor_id;sensor_type;location;lat;lon;timestamp;P1;durP1;ratioP1;P2;durP2;ratioP2
37657;SDS011;23500;53.268;8.308;2024-02-28T00:00:55;3.20;;;2.90;;
37657;SDS011;23500;53.268;8.308;2024-02-28T00:03:20;3.37;;;2.90;;
37657;SDS011;23500;53.268;8.308;2024-02-28T00:05:48;3.00;;;2.80;;
37657;SDS011;23500;53.268;8.308;2024-02-28T00:08:13;3.57;;;2.70;;
37657;SDS011;23500;53.268;8.308;2024-02-28T00:10:39;3.37;;;2.90;;
37657;SDS011;23500;53.268;8.308;2024-02-28T00:13:05;3.10;;;2.80;;
37657;SDS011;23500;53.268;8.308;2024-02-28T00:15:30;3.20;;;2.90;;
37657;SDS011;23500;53.268;8.308;2024-02-28T00:17:56;3.13;;;2.90;;
37657;SDS011;23500;53.268;8.308;2024-02-28T00:20:23;3.50;;;3.20;;
37657;SDS011;23500;53.268;8.308;2024-02-28T00:22:52;3.70;;;3.40;;
37657;SDS011;23500;53.268;8.308;2024-02-28T00:25:17;3.10;;;2.90;;
37657;SDS011;23500;53.268;8.308;2024-02-28T00:27:43;2.97;;;2.77;;
37657;SDS011;23500;53.268;8.308;2024-02-28T00:30:09;3.03;;;2.80;;
37657;SDS011;23500;53.268;8.308;2024-02-28T00:32:35;3.33;;;2.80;;
37657;SDS011;23500;53.268;8.308;2024-02-28T00:35:00;3.20;;;2.90;;
37657;SDS011;23500;53.268;8.308;2024-02-28T00:37:26;2.90;;;2.70;;
37657;SDS011;23500;53.268;8.308;2024-02-28T00:39:52;3.43;;;3.13;;
37657;SDS011;23500;53.268;8.308;2024-02-28T00:42:18;3.40;;;3.10;;
37657;SDS011;23500;53.268;8.308;2024-02-28T00:44:44;3.30;;;3.00;;
37657;SDS011;23500;53.268;8.308;2024-02-28T00:47:09;3.23;;;2.90;;
37657;SDS011;23500;53.268;8.308;2024-02-28T00:49:35;3.23;;;2.90;;
37657;SDS011;23500;53.268;8.308;2024-02-28T00:52:01;3.03;;;2.83;;
37657;SDS011;23500;53.268;8.308;2024-02-28T00:54:26;3.30;;;3.00;;
37657;SDS011;23500;53.268;8.308;2024-02-28T00:56:53;3.63;;;3.33;;
37657;SDS011;23500;53.268;8.308;2024-02-28T00:59:18;3.20;;;2.90;;
37657;SDS011;23500;53.268;8.308;2024-02-28T01:01:44;3.20;;;2.90;;
37657;SDS011;23500;53.268;8.308;2024-02-28T01:04:09;3.40;;;3.10;;
37657;SDS011;23500;53.268;8.308;2024-02-28T01:06:35;3.67;;;3.03;;
37657;SDS011;23500;53.268;8.308;2024-02-28T01:09:02;3.17;;;2.87;;
37657;SDS011;23500;53.268;8.308;2024-02-28T01:11:28;3.30;;;3.00;;
37657;SDS011;23500;53.268;8.308;2024-02-28T01:13:53;3.40;;;3.10;;
37657;SDS011;23500;53.268;8.308;2024-02-28T01:16:19;3.20;;;3.00;;
37657;SDS011;23500;53.268;8.308;2024-02-28T01:18:45;2.93;;;2.70;;
37657;SDS011;23500;53.268;8.308;2024-02-28T01:21:10;2.93;;;2.73;;
37657;SDS011;23500;53.268;8.308;2024-02-28T01:23:36;3.20;;;2.90;;
37657;SDS011;23500;53.268;8.308;2024-02-28T01:26:02;3.30;;;3.00;;
37657;SDS011;23500;53.268;8.308;2024-02-28T01:28:30;3.23;;;2.93;;
37657;SDS011;23500;53.268;8.308;2024-02-28T01:30:55;3.50;;;3.20;;
37657;SDS011;23500;53.268;8.308;2024-02-28T01:33:21;3.30;;;3.00;;
37657;SDS011;23500;53.268;8.308;2024-02-28T01:35:47;3.10;;;2.80;;
37657;SDS011;23500;53.268;8.308;2024-02-28T01:38:12;3.60;;;3.30;;
37657;SDS011;23500;53.268;8.308;2024-02-28T01:40:38;3.23;;;2.93;;
37657;SDS011;23500;53.268;8.308;2024-02-28T01:43:08;3.47;;;3.17;;
37657;SDS011;23500;53.268;8.308;2024-02-28T01:45:36;3.53;;;3.23;;
37657;SDS011;23500;53.268;8.308;2024-02-28T01:48:02;3.23;;;2.93;;
37657;SDS011;23500;53.268;8.308;2024-02-28T01:50:30;3.37;;;3.07;;
37657;SDS011;23500;53.268;8.308;2024-02-28T01:52:56;3.50;;;3.20;;
37657;SDS011;23500;53.268;8.308;2024-02-28T01:55:23;3.47;;;3.17;;
37657;SDS011;23500;53.268;8.308;2024-02-28T01:57:49;3.67;;;3.37;;
37657;SDS011;23500;53.268;8.308;2024-02-28T02:00:15;3.43;;;3.13;;
37657;SDS011;23500;53.268;8.308;2024-02-28T02:02:42;3.40;;;3.10;;
37657;SDS011;23500;53.268;8.308;2024-02-28T02:05:08;3.37;;;3.07;;
37657;SDS011;23500;53.268;8.308;2024-02-28T02:07:34;3.27;;;2.97;;
37657;SDS011;23500;53.268;8.308;2024-02-28T02:10:01;3.90;;;3.50;;
37657;SDS011;23500;53.268;8.308;2024-02-28T02:12:27;3.07;;;2.77;;
37657;SDS011;23500;53.268;8.308;2024-02-28T02:14:52;3.43;;;3.13;;
37657;SDS011;23500;53.268;8.308;2024-02-28T02:17:18;3.20;;;2.90;;
37657;SDS011;23500;53.268;8.308;2024-02-28T02:19:44;3.23;;;2.80;;
37657;SDS011;23500;53.268;8.308;2024-02-28T02:22:10;3.47;;;3.17;;
37657;SDS011;23500;53.268;8.308;2024-02-28T02:24:38;3.23;;;2.90;;
37657;SDS011;23500;53.268;8.308;2024-02-28T02:27:04;3.30;;;3.00;;
37657;SDS011;23500;53.268;8.308;2024-02-28T02:29:30;3.40;;;3.10;;
37657;SDS011;23500;53.268;8.308;2024-02-28T02:31:56;3.20;;;2.90;;
37657;SDS011;23500;53.268;8.308;2024-02-28T02:34:21;3.43;;;3.13;;
37657;SDS011;23500;53.268;8.308;2024-02-28T02:36:47;3.00;;;2.80;;
37657;SDS011;23500;53.268;8.308;2024-02-28T02:39:13;3.77;;;3.40;;
37657;SDS011;23500;53.268;8.308;2024-02-28T02:41:39;3.60;;;3.30;;
37657;SDS011;23500;53.268;8.308;2024-02-28T02:44:05;3.20;;;2.90;;
37657;SDS011;23500;53.268;8.308;2024-02-28T02:46:32;3.80;;;3.30;;
37657;SDS011;23500;53.268;8.308;2024-02-28T02:48:58;3.97;;;3.63;;
37657;SDS011;23500;53.268;8.308;2024-02-28T02:51:23;3.70;;;3.40;;
37657;SDS011;23500;53.268;8.308;2024-02-28T02:53:50;3.57;;;3.27;;
37657;SDS011;23500;53.268;8.308;2024-02-28T02:56:16;3.43;;;3.13;;
37657;SDS011;23500;53.268;8.308;2024-02-28T02:58:42;4.40;;;3.53;;
37657;SDS011;23500;53.268;8.308;2024-02-28T03:01:07;3.70;;;3.40;;
37657;SDS011;23500;53.268;8.308;2024-02-28T03:03:34;3.90;;;3.50;;
37657;SDS011;23500;53.268;8.308;2024-02-28T03:05:59;3.70;;;3.40;;
37657;SDS011;23500;53.268;8.308;2024-02-28T03:08:25;3.90;;;3.60;;
37657;SDS011;23500;53.268;8.308;2024-02-28T03:10:51;3.87;;;3.57;;
37657;SDS011;23500;53.268;8.308;2024-02-28T03:13:17;3.80;;;3.47;;
37657;SDS011;23500;53.268;8.308;2024-02-28T03:15:43;3.90;;;3.43;;
37657;SDS011;23500;53.268;8.308;2024-02-28T03:18:09;3.70;;;3.40;;
37657;SDS011;23500;53.268;8.308;2024-02-28T03:20:35;3.87;;;3.57;;
37657;SDS011;23500;53.268;8.308;2024-02-28T03:23:03;3.90;;;3.50;;
37657;SDS011;23500;53.268;8.308;2024-02-28T03:25:31;4.50;;;4.00;;
37657;SDS011;23500;53.268;8.308;2024-02-28T03:27:57;4.30;;;3.90;;
37657;SDS011;23500;53.268;8.308;2024-02-28T03:30:24;4.10;;;3.70;;
37657;SDS011;23500;53.268;8.308;2024-02-28T03:32:50;4.73;;;4.27;;
37657;SDS011;23500;53.268;8.308;2024-02-28T03:35:16;4.40;;;4.00;;
37657;SDS011;23500;53.268;8.308;2024-02-28T03:37:42;4.33;;;3.80;;
37657;SDS011;23500;53.268;8.308;2024-02-28T03:40:07;4.37;;;3.80;;
37657;SDS011;23500;53.268;8.308;2024-02-28T03:42:33;4.97;;;4.17;;
37657;SDS011;23500;53.268;8.308;2024-02-28T03:44:59;4.60;;;4.20;;
37657;SDS011;23500;53.268;8.308;2024-02-28T03:47:25;4.40;;;4.00;;
37657;SDS011;23500;53.268;8.308;2024-02-28T03:49:50;4.40;;;3.97;;
37657;SDS011;23500;53.268;8.308;2024-02-28T03:52:16;5.37;;;4.27;;
37657;SDS011;23500;53.268;8.308;2024-02-28T03:54:45;4.80;;;4.17;;
37657;SDS011;23500;53.268;8.308;2024-02-28T03:57:10;4.67;;;3.97;;
37657;SDS011;23500;53.268;8.308;2024-02-28T03:59:36;4.57;;;4.00;;
37657;SDS011;23500;53.268;8.308;2024-02-28T04:02:02;5.20;;;4.47;;
37657;SDS011;23500;53.268;8.308;2024-02-28T04:04:27;4.57;;;4.17;;
37657;SDS011;23500;53.268;8.308;2024-02-28T04:06:55;5.27;;;4.77;;
37657;SDS011;23500;53.268;8.308;2024-02-28T04:09:21;4.73;;;4.23;;
37657;SDS011;23500;53.268;8.308;2024-02-28T04:11:47;4.90;;;4.40;;
37657;SDS011;23500;53.268;8.308;2024-02-28T04:14:13;5.27;;;4.77;;
37657;SDS011;23500;53.268;8.308;2024-02-28T04:16:42;5.13;;;4.63;;
37657;SDS011;23500;53.268;8.308;2024-02-28T04:19:12;5.47;;;4.60;;
37657;SDS011;23500;53.268;8.308;2024-02-28T04:21:38;5.07;;;4.57;;
37657;SDS011;23500;53.268;8.308;2024-02-28T04:24:06;5.30;;;4.80;;
37657;SDS011;23500;53.268;8.308;2024-02-28T04:26:34;4.97;;;4.47;;
37657;SDS011;23500;53.268;8.308;2024-02-28T04:29:00;5.07;;;4.57;;
37657;SDS011;23500;53.268;8.308;2024-02-28T04:31:28;5.17;;;4.67;;
37657;SDS011;23500;53.268;8.308;2024-02-28T04:33:53;4.93;;;4.40;;
37657;SDS011;23500;53.268;8.308;2024-02-28T04:36:19;5.07;;;4.57;;
37657;SDS011;23500;53.268;8.308;2024-02-28T04:38:45;5.10;;;4.60;;
37657;SDS011;23500;53.268;8.308;2024-02-28T04:41:10;5.30;;;4.80;;
37657;SDS011;23500;53.268;8.308;2024-02-28T04:43:36;4.77;;;4.33;;
37657;SDS011;23500;53.268;8.308;2024-02-28T04:46:01;4.97;;;4.47;;
37657;SDS011;23500;53.268;8.308;2024-02-28T04:48:28;4.60;;;4.20;;
37657;SDS011;23500;53.268;8.308;2024-02-28T04:50:53;4.93;;;4.53;;
37657;SDS011;23500;53.268;8.308;2024-02-28T04:53:19;5.40;;;4.60;;
37657;SDS011;23500;53.268;8.308;2024-02-28T04:55:45;5.03;;;4.57;;
37657;SDS011;23500;53.268;8.308;2024-02-28T04:58:11;5.07;;;4.57;;
37657;SDS011;23500;53.268;8.308;2024-02-28T05:00:36;5.57;;;4.90;;
37657;SDS011;23500;53.268;8.308;2024-02-28T05:03:02;4.90;;;4.40;;
37657;SDS011;23500;53.268;8.308;2024-02-28T05:05:28;4.73;;;4.27;;
37657;SDS011;23500;53.268;8.308;2024-02-28T05:07:53;4.93;;;4.43;;
37657;SDS011;23500;53.268;8.308;2024-02-28T05:10:19;4.83;;;4.17;;
37657;SDS011;23500;53.268;8.308;2024-02-28T05:12:45;5.23;;;4.70;;
37657;SDS011;23500;53.268;8.308;2024-02-28T05:15:11;5.10;;;4.57;;
37657;SDS011;23500;53.268;8.308;2024-02-28T05:17:37;4.93;;;4.43;;
37657;SDS011;23500;53.268;8.308;2024-02-28T05:20:02;5.17;;;4.67;;
37657;SDS011;23500;53.268;8.308;2024-02-28T05:22:28;4.90;;;4.40;;
37657;SDS011;23500;53.268;8.308;2024-02-28T05:24:54;4.93;;;4.43;;
37657;SDS011;23500;53.268;8.308;2024-02-28T05:27:20;4.90;;;4.40;;
37657;SDS011;23500;53.268;8.308;2024-02-28T05:29:45;4.27;;;3.87;;
37657;SDS011;23500;53.268;8.308;2024-02-28T05:32:11;4.80;;;4.30;;
37657;SDS011;23500;53.268;8.308;2024-02-28T05:34:37;4.60;;;4.20;;
37657;SDS011;23500;53.268;8.308;2024-02-28T05:37:02;4.63;;;4.20;;
37657;SDS011;23500;53.268;8.308;2024-02-28T05:39:28;5.00;;;4.50;;
37657;SDS011;23500;53.268;8.308;2024-02-28T05:41:57;4.30;;;3.90;;
37657;SDS011;23500;53.268;8.308;2024-02-28T05:44:22;5.17;;;4.40;;
37657;SDS011;23500;53.268;8.308;2024-02-28T05:46:49;4.87;;;4.37;;
37657;SDS011;23500;53.268;8.308;2024-02-28T05:49:15;4.43;;;3.60;;
37657;SDS011;23500;53.268;8.308;2024-02-28T05:51:41;4.70;;;4.30;;
37657;SDS011;23500;53.268;8.308;2024-02-28T05:54:06;4.60;;;4.20;;
37657;SDS011;23500;53.268;8.308;2024-02-28T05:56:32;4.70;;;4.20;;
37657;SDS011;23500;53.268;8.308;2024-02-28T05:58:58;5.00;;;4.50;;
37657;SDS011;23500;53.268;8.308;2024-02-28T06:01:23;5.03;;;4.53;;
37657;SDS011;23500;53.268;8.308;2024-02-28T06:03:49;4.70;;;4.20;;
37657;SDS011;23500;53.268;8.308;2024-02-28T06:06:18;4.70;;;4.30;;
37657;SDS011;23500;53.268;8.308;2024-02-28T06:08:44;5.10;;;4.50;;
37657;SDS011;23500;53.268;8.308;2024-02-28T06:11:10;4.87;;;4.37;;
37657;SDS011;23500;53.268;8.308;2024-02-28T06:13:36;4.97;;;4.40;;
37657;SDS011;23500;53.268;8.308;2024-02-28T06:16:02;4.37;;;3.97;;
37657;SDS011;23500;53.268;8.308;2024-02-28T06:18:28;5.40;;;4.90;;
37657;SDS011;23500;53.268;8.308;2024-02-28T06:20:58;4.80;;;4.30;;
37657;SDS011;23500;53.268;8.308;2024-02-28T06:23:25;4.80;;;4.37;;
37657;SDS011;23500;53.268;8.308;2024-02-28T06:25:51;5.17;;;4.67;;
37657;SDS011;23500;53.268;8.308;2024-02-28T06:28:17;4.77;;;4.20;;
37657;SDS011;23500;53.268;8.308;2024-02-28T06:30:43;5.23;;;4.73;;
37657;SDS011;23500;53.268;8.308;2024-02-28T06:33:12;5.10;;;4.60;;
37657;SDS011;23500;53.268;8.308;2024-02-28T06:35:38;5.50;;;5.00;;
37657;SDS011;23500;53.268;8.308;2024-02-28T06:38:05;14.63;;;6.50;;
37657;SDS011;23500;53.268;8.308;2024-02-28T06:40:30;10.17;;;5.80;;
37657;SDS011;23500;53.268;8.308;2024-02-28T06:42:56;12.20;;;5.77;;
37657;SDS011;23500;53.268;8.308;2024-02-28T06:45:22;10.57;;;5.90;;
37657;SDS011;23500;53.268;8.308;2024-02-28T06:47:47;9.83;;;5.83;;
37657;SDS011;23500;53.268;8.308;2024-02-28T06:50:13;8.17;;;6.07;;
37657;SDS011;23500;53.268;8.308;2024-02-28T06:52:40;10.63;;;5.63;;
37657;SDS011;23500;53.268;8.308;2024-02-28T06:55:06;10.30;;;6.00;;
37657;SDS011;23500;53.268;8.308;2024-02-28T06:57:39;8.63;;;5.43;;
37657;SDS011;23500;53.268;8.308;2024-02-28T07:00:06;9.63;;;5.77;;
37657;SDS011;23500;53.268;8.308;2024-02-28T07:02:43;10.73;;;5.63;;
37657;SDS011;23500;53.268;8.308;2024-02-28T07:05:10;9.00;;;6.10;;
37657;SDS011;23500;53.268;8.308;2024-02-28T07:07:35;13.13;;;6.10;;
37657;SDS011;23500;53.268;8.308;2024-02-28T07:10:04;9.50;;;5.53;;
37657;SDS011;23500;53.268;8.308;2024-02-28T07:12:30;8.67;;;5.37;;
37657;SDS011;23500;53.268;8.308;2024-02-28T07:14:56;7.93;;;6.00;;
37657;SDS011;23500;53.268;8.308;2024-02-28T07:17:22;7.03;;;5.70;;
37657;SDS011;23500;53.268;8.308;2024-02-28T07:19:48;8.13;;;5.57;;
37657;SDS011;23500;53.268;8.308;2024-02-28T07:22:13;9.93;;;5.83;;
37657;SDS011;23500;53.268;8.308;2024-02-28T07:24:39;7.27;;;5.57;;
37657;SDS011;23500;53.268;8.308;2024-02-28T07:27:05;10.77;;;5.87;;
37657;SDS011;23500;53.268;8.308;2024-02-28T07:29:31;8.33;;;5.90;;
37657;SDS011;23500;53.268;8.308;2024-02-28T07:31:56;7.30;;;5.60;;
37657;SDS011;23500;53.268;8.308;2024-02-28T07:34:22;9.37;;;5.67;;
37657;SDS011;23500;53.268;8.308;2024-02-28T07:36:48;10.20;;;5.77;;
37657;SDS011;23500;53.268;8.308;2024-02-28T07:39:14;9.50;;;5.87;;
37657;SDS011;23500;53.268;8.308;2024-02-28T07:41:39;8.63;;;5.80;;
37657;SDS011;23500;53.268;8.308;2024-02-28T07:44:06;8.83;;;5.33;;
37657;SDS011;23500;53.268;8.308;2024-02-28T07:46:33;7.30;;;5.47;;
37657;SDS011;23500;53.268;8.308;2024-02-28T07:48:59;7.07;;;5.57;;
37657;SDS011;23500;53.268;8.308;2024-02-28T07:51:26;7.17;;;5.47;;
37657;SDS011;23500;53.268;8.308;2024-02-28T07:53:51;8.10;;;5.40;;
37657;SDS011;23500;53.268;8.308;2024-02-28T07:56:20;7.07;;;5.10;;
37657;SDS011;23500;53.268;8.308;2024-02-28T07:58:46;9.53;;;5.70;;
37657;SDS011;23500;53.268;8.308;2024-02-28T08:01:12;8.50;;;5.20;;
37657;SDS011;23500;53.268;8.308;2024-02-28T08:03:38;8.50;;;5.80;;
37657;SDS011;23500;53.268;8.308;2024-02-28T08:06:04;8.50;;;5.97;;
37657;SDS011;23500;53.268;8.308;2024-02-28T08:08:30;9.17;;;4.90;;
37657;SDS011;23500;53.268;8.308;2024-02-28T08:10:55;8.60;;;5.10;;
37657;SDS011;23500;53.268;8.308;2024-02-28T08:13:21;7.53;;;5.30;;
37657;SDS011;23500;53.268;8.308;2024-02-28T08:15:47;9.93;;;5.90;;
37657;SDS011;23500;53.268;8.308;2024-02-28T08:18:12;7.20;;;5.13;;
37657;SDS011;23500;53.268;8.308;2024-02-28T08:20:38;8.03;;;5.27;;
37657;SDS011;23500;53.268;8.308;2024-02-28T08:23:04;7.83;;;5.60;;
37657;SDS011;23500;53.268;8.308;2024-02-28T08:25:30;8.07;;;4.80;;
37657;SDS011;23500;53.268;8.308;2024-02-28T08:27:57;7.07;;;4.77;;
37657;SDS011;23500;53.268;8.308;2024-02-28T08:30:22;6.57;;;4.93;;
37657;SDS011;23500;53.268;8.308;2024-02-28T08:32:48;7.53;;;4.97;;
37657;SDS011;23500;53.268;8.308;2024-02-28T08:35:14;6.93;;;5.20;;
37657;SDS011;23500;53.268;8.308;2024-02-28T08:37:40;8.30;;;5.30;;
37657;SDS011;23500;53.268;8.308;2024-02-28T08:40:06;7.60;;;5.60;;
37657;SDS011;23500;53.268;8.308;2024-02-28T08:42:33;8.93;;;5.70;;
37657;SDS011;23500;53.268;8.308;2024-02-28T08:44:59;7.90;;;5.30;;
37657;SDS011;23500;53.268;8.308;2024-02-28T08:47:25;8.07;;;5.37;;
37657;SDS011;23500;53.268;8.308;2024-02-28T08:49:52;8.17;;;5.43;;
37657;SDS011;23500;53.268;8.308;2024-02-28T08:52:18;6.17;;;4.87;;
37657;SDS011;23500;53.268;8.308;2024-02-28T08:54:44;6.53;;;4.77;;
37657;SDS011;23500;53.268;8.308;2024-02-28T08:57:10;7.23;;;4.90;;
37657;SDS011;23500;53.268;8.308;2024-02-28T08:59:36;7.07;;;4.93;;
37657;SDS011;23500;53.268;8.308;2024-02-28T09:02:01;7.47;;;5.10;;
37657;SDS011;23500;53.268;8.308;2024-02-28T09:04:27;6.47;;;4.80;;
37657;SDS011;23500;53.268;8.308;2024-02-28T09:06:53;7.00;;;5.47;;
37657;SDS011;23500;53.268;8.308;2024-02-28T09:09:19;7.47;;;5.37;;
37657;SDS011;23500;53.268;8.308;2024-02-28T09:11:45;7.40;;;5.50;;
37657;SDS011;23500;53.268;8.308;2024-02-28T09:14:10;5.63;;;4.90;;
37657;SDS011;23500;53.268;8.308;2024-02-28T09:16:36;7.50;;;4.90;;
37657;SDS011;23500;53.268;8.308;2024-02-28T09:19:03;6.37;;;4.90;;
37657;SDS011;23500;53.268;8.308;2024-02-28T09:21:29;8.83;;;5.33;;
37657;SDS011;23500;53.268;8.308;2024-02-28T09:23:55;8.07;;;5.10;;
37657;SDS011;23500;53.268;8.308;2024-02-28T09:26:21;6.20;;;4.73;;
37657;SDS011;23500;53.268;8.308;2024-02-28T09:28:46;7.23;;;4.60;;
37657;SDS011;23500;53.268;8.308;2024-02-28T09:31:12;6.10;;;4.93;;
37657;SDS011;23500;53.268;8.308;2024-02-28T09:33:40;7.97;;;5.47;;
37657;SDS011;23500;53.268;8.308;2024-02-28T09:36:06;6.30;;;4.90;;
37657;SDS011;23500;53.268;8.308;2024-02-28T09:38:32;8.00;;;5.03;;
37657;SDS011;23500;53.268;8.308;2024-02-28T09:40:59;7.57;;;5.30;;
37657;SDS011;23500;53.268;8.308;2024-02-28T09:43:29;7.43;;;5.27;;
37657;SDS011;23500;53.268;8.308;2024-02-28T09:45:58;7.77;;;5.33;;
37657;SDS011;23500;53.268;8.308;2024-02-28T09:48:28;6.47;;;4.87;;
37657;SDS011;23500;53.268;8.308;2024-02-28T09:50:55;6.77;;;5.10;;
37657;SDS011;23500;53.268;8.308;2024-02-28T09:53:22;6.93;;;5.27;;
37657;SDS011;23500;53.268;8.308;2024-02-28T09:55:48;7.10;;;5.43;;
37657;SDS011;23500;53.268;8.308;2024-02-28T09:58:15;7.47;;;5.17;;
37657;SDS011;23500;53.268;8.308;2024-02-28T10:00:42;7.30;;;5.10;;
37657;SDS011;23500;53.268;8.308;2024-02-28T10:03:11;6.70;;;5.20;;
37657;SDS011;23500;53.268;8.308;2024-02-28T10:05:39;8.43;;;5.50;;
37657;SDS011;23500;53.268;8.308;2024-02-28T10:08:05;7.87;;;5.63;;
37657;SDS011;23500;53.268;8.308;2024-02-28T10:10:31;6.50;;;5.13;;
37657;SDS011;23500;53.268;8.308;2024-02-28T10:12:57;7.87;;;5.47;;
37657;SDS011;23500;53.268;8.308;2024-02-28T10:15:28;8.13;;;5.60;;
37657;SDS011;23500;53.268;8.308;2024-02-28T10:17:55;6.93;;;5.47;;
37657;SDS011;23500;53.268;8.308;2024-02-28T10:20:21;6.70;;;5.43;;
37657;SDS011;23500;53.268;8.308;2024-02-28T10:22:46;7.53;;;5.50;;
37657;SDS011;23500;53.268;8.308;2024-02-28T10:25:13;8.03;;;5.37;;
37657;SDS011;23500;53.268;8.308;2024-02-28T10:27:39;7.50;;;5.90;;
37657;SDS011;23500;53.268;8.308;2024-02-28T10:30:06;6.77;;;5.17;;
37657;SDS011;23500;53.268;8.308;2024-02-28T10:32:32;7.37;;;5.40;;
37657;SDS011;23500;53.268;8.308;2024-02-28T10:35:00;7.03;;;5.13;;
37657;SDS011;23500;53.268;8.308;2024-02-28T10:37:28;7.23;;;5.20;;
37657;SDS011;23500;53.268;8.308;2024-02-28T10:39:56;8.40;;;5.47;;
37657;SDS011;23500;53.268;8.308;2024-02-28T10:42:23;6.43;;;5.23;;
37657;SDS011;23500;53.268;8.308;2024-02-28T10:44:53;7.33;;;5.10;;
37657;SDS011;23500;53.268;8.308;2024-02-28T10:47:23;5.87;;;5.00;;
37657;SDS011;23500;53.268;8.308;2024-02-28T10:49:50;5.70;;;4.90;;
37657;SDS011;23500;53.268;8.308;2024-02-28T10:52:16;7.83;;;5.73;;
37657;SDS011;23500;53.268;8.308;2024-02-28T10:54:48;7.80;;;5.50;;
37657;SDS011;23500;53.268;8.308;2024-02-28T10:57:21;6.80;;;5.30;;
37657;SDS011;23500;53.268;8.308;2024-02-28T10:59:49;7.07;;;5.57;;
37657;SDS011;23500;53.268;8.308;2024-02-28T11:02:15;7.03;;;5.60;;
37657;SDS011;23500;53.268;8.308;2024-02-28T11:04:41;6.70;;;5.40;;
37657;SDS011;23500;53.268;8.308;2024-02-28T11:07:07;8.13;;;5.43;;
37657;SDS011;23500;53.268;8.308;2024-02-28T11:09:33;7.33;;;5.70;;
37657;SDS011;23500;53.268;8.308;2024-02-28T11:11:59;6.30;;;4.87;;
37657;SDS011;23500;53.268;8.308;2024-02-28T11:14:27;6.40;;;5.17;;
37657;SDS011;23500;53.268;8.308;2024-02-28T11:17:04;6.50;;;5.40;;
37657;SDS011;23500;53.268;8.308;2024-02-28T11:19:31;7.27;;;5.83;;
37657;SDS011;23500;53.268;8.308;2024-02-28T11:21:58;6.80;;;5.10;;
37657;SDS011;23500;53.268;8.308;2024-02-28T11:24:33;6.87;;;5.23;;
37657;SDS011;23500;53.268;8.308;2024-02-28T11:27:01;7.07;;;5.50;;
37657;SDS011;23500;53.268;8.308;2024-02-28T11:29:28;7.13;;;5.33;;
37657;SDS011;23500;53.268;8.308;2024-02-28T11:31:54;6.57;;;5.10;;
37657;SDS011;23500;53.268;8.308;2024-02-28T11:34:20;6.47;;;4.67;;
37657;SDS011;23500;53.268;8.308;2024-02-28T11:36:47;6.67;;;5.23;;
37657;SDS011;23500;53.268;8.308;2024-02-28T11:39:14;6.67;;;5.30;;
37657;SDS011;23500;53.268;8.308;2024-02-28T11:41:40;6.97;;;5.03;;
37657;SDS011;23500;53.268;8.308;2024-02-28T11:44:06;6.00;;;4.93;;
37657;SDS011;23500;53.268;8.308;2024-02-28T11:46:32;5.80;;;5.20;;
37657;SDS011;23500;53.268;8.308;2024-02-28T11:48:58;6.80;;;5.00;;
37657;SDS011;23500;53.268;8.308;2024-02-28T11:51:26;6.03;;;5.03;;
37657;SDS011;23500;53.268;8.308;2024-02-28T11:53:51;5.70;;;5.00;;
37657;SDS011;23500;53.268;8.308;2024-02-28T11:56:17;6.40;;;5.20;;
37657;SDS011;23500;53.268;8.308;2024-02-28T11:58:55;5.90;;;4.90;;
37657;SDS011;23500;53.268;8.308;2024-02-28T12:04:20;6.77;;;5.00;;
37657;SDS011;23500;53.268;8.308;2024-02-28T12:06:49;6.23;;;5.13;;
37657;SDS011;23500;53.268;8.308;2024-02-28T12:09:14;7.13;;;5.37;;
37657;SDS011;23500;53.268;8.308;2024-02-28T12:11:40;5.93;;;4.93;;
37657;SDS011;23500;53.268;8.308;2024-02-28T12:14:06;6.00;;;4.80;;
37657;SDS011;23500;53.268;8.308;2024-02-28T12:16:34;6.63;;;5.30;;
37657;SDS011;23500;53.268;8.308;2024-02-28T12:19:08;6.13;;;5.13;;
37657;SDS011;23500;53.268;8.308;2024-02-28T12:21:34;5.97;;;5.13;;
37657;SDS011;23500;53.268;8.308;2024-02-28T12:24:01;5.90;;;5.10;;
37657;SDS011;23500;53.268;8.308;2024-02-28T12:26:27;5.80;;;5.03;;
37657;SDS011;23500;53.268;8.308;2024-02-28T12:28:53;5.87;;;4.83;;
37657;SDS011;23500;53.268;8.308;2024-02-28T12:31:19;5.90;;;5.30;;
37657;SDS011;23500;53.268;8.308;2024-02-28T12:33:46;6.87;;;5.50;;
37657;SDS011;23500;53.268;8.308;2024-02-28T12:36:12;5.77;;;4.87;;
37657;SDS011;23500;53.268;8.308;2024-02-28T12:38:39;5.43;;;4.70;;
37657;SDS011;23500;53.268;8.308;2024-02-28T12:41:06;6.53;;;5.03;;
37657;SDS011;23500;53.268;8.308;2024-02-28T12:43:32;6.13;;;5.00;;
37657;SDS011;23500;53.268;8.308;2024-02-28T12:45:58;6.10;;;4.90;;
37657;SDS011;23500;53.268;8.308;2024-02-28T12:48:24;7.47;;;5.07;;
37657;SDS011;23500;53.268;8.308;2024-02-28T12:50:49;5.30;;;4.80;;
37657;SDS011;23500;53.268;8.308;2024-02-28T12:53:15;7.07;;;5.10;;
37657;SDS011;23500;53.268;8.308;2024-02-28T12:55:41;6.27;;;4.87;;
37657;SDS011;23500;53.268;8.308;2024-02-28T12:58:07;5.90;;;4.70;;
37657;SDS011;23500;53.268;8.308;2024-02-28T13:00:33;6.20;;;5.00;;
37657;SDS011;23500;53.268;8.308;2024-02-28T13:02:59;6.00;;;4.60;;
37657;SDS011;23500;53.268;8.308;2024-02-28T13:05:24;5.90;;;5.00;;
37657;SDS011;23500;53.268;8.308;2024-02-28T13:07:51;5.53;;;4.93;;
37657;SDS011;23500;53.268;8.308;2024-02-28T13:10:17;6.43;;;4.97;;
37657;SDS011;23500;53.268;8.308;2024-02-28T13:12:43;5.30;;;4.80;;
37657;SDS011;23500;53.268;8.308;2024-02-28T13:15:09;6.63;;;5.00;;
37657;SDS011;23500;53.268;8.308;2024-02-28T13:17:35;5.67;;;5.00;;
37657;SDS011;23500;53.268;8.308;2024-02-28T13:20:01;6.27;;;4.77;;
37657;SDS011;23500;53.268;8.308;2024-02-28T13:22:28;5.87;;;4.87;;
37657;SDS011;23500;53.268;8.308;2024-02-28T13:24:53;5.67;;;4.60;;
37657;SDS011;23500;53.268;8.308;2024-02-28T13:27:19;6.80;;;5.30;;
37657;SDS011;23500;53.268;8.308;2024-02-28T13:29:45;5.90;;;4.87;;
37657;SDS011;23500;53.268;8.308;2024-02-28T13:32:11;5.10;;;4.40;;
37657;SDS011;23500;53.268;8.308;2024-02-28T13:34:37;6.07;;;4.87;;
37657;SDS011;23500;53.268;8.308;2024-02-28T13:37:04;6.77;;;4.70;;
37657;SDS011;23500;53.268;8.308;2024-02-28T13:39:30;6.30;;;4.90;;
37657;SDS011;23500;53.268;8.308;2024-02-28T13:41:55;6.07;;;4.72;;
37657;SDS011;23500;53.268;8.308;2024-02-28T13:44:22;6.13;;;4.40;;
37657;SDS011;23500;53.268;8.308;2024-02-28T13:46:49;5.53;;;4.70;;
37657;SDS011;23500;53.268;8.308;2024-02-28T13:49:16;6.33;;;5.07;;
37657;SDS011;23500;53.268;8.308;2024-02-28T13:51:45;5.70;;;4.60;;
37657;SDS011;23500;53.268;8.308;2024-02-28T13:54:14;6.07;;;4.60;;
37657;SDS011;23500;53.268;8.308;2024-02-28T13:56:40;5.83;;;4.70;;
37657;SDS011;23500;53.268;8.308;2024-02-28T13:59:06;4.87;;;4.33;;
37657;SDS011;23500;53.268;8.308;2024-02-28T14:01:32;5.23;;;4.73;;
37657;SDS011;23500;53.268;8.308;2024-02-28T14:03:58;5.73;;;4.60;;
37657;SDS011;23500;53.268;8.308;2024-02-28T14:06:23;5.40;;;4.63;;
37657;SDS011;23500;53.268;8.308;2024-02-28T14:08:49;5.07;;;4.30;;
37657;SDS011;23500;53.268;8.308;2024-02-28T14:11:17;5.50;;;4.77;;
37657;SDS011;23500;53.268;8.308;2024-02-28T14:13:43;5.90;;;4.70;;
37657;SDS011;23500;53.268;8.308;2024-02-28T14:16:08;5.53;;;4.53;;
37657;SDS011;23500;53.268;8.308;2024-02-28T14:18:34;5.53;;;4.45;;
37657;SDS011;23500;53.268;8.308;2024-02-28T14:21:00;5.93;;;4.63;;
37657;SDS011;23500;53.268;8.308;2024-02-28T14:23:27;6.90;;;4.67;;
37657;SDS011;23500;53.268;8.308;2024-02-28T14:25:53;5.53;;;4.80;;
37657;SDS011;23500;53.268;8.308;2024-02-28T14:28:18;4.87;;;4.37;;
37657;SDS011;23500;53.268;8.308;2024-02-28T14:30:44;5.47;;;4.60;;
37657;SDS011;23500;53.268;8.308;2024-02-28T14:33:11;5.43;;;4.70;;
37657;SDS011;23500;53.268;8.308;2024-02-28T14:35:36;5.70;;;4.78;;
37657;SDS011;23500;53.268;8.308;2024-02-28T14:38:04;4.87;;;4.20;;
37657;SDS011;23500;53.268;8.308;2024-02-28T14:40:31;5.80;;;4.77;;
37657;SDS011;23500;53.268;8.308;2024-02-28T14:42:57;5.40;;;4.57;;
37657;SDS011;23500;53.268;8.308;2024-02-28T14:45:23;4.83;;;4.20;;